sensor_id;sensor_type;location;lat;lon;timestamp;P1;durP1;ratioP1;P2;durP2;ratioP2
50337;SDS011;46221;51.178;5.900;2022-12-18T00:00:56;12.63;;;8.40;;
50337;SDS011;46221;51.178;5.900;2022-12-18T00:03:22;11.23;;;7.78;;
50337;SDS011;46221;51.178;5.900;2022-12-18T00:05:49;12.63;;;8.48;;
50337;SDS011;46221;51.178;5.900;2022-12-18T00:08:16;12.75;;;8.05;;
50337;SDS011;46221;51.178;5.900;2022-12-18T00:10:43;11.43;;;7.88;;
50337;SDS011;46221;51.178;5.900;2022-12-18T00:13:09;12.98;;;7.95;;
50337;SDS011;46221;51.178;5.900;2022-12-18T00:15:36;14.68;;;8.57;;
50337;SDS011;46221;51.178;5.900;2022-12-18T00:18:03;10.90;;;8.13;;
50337;SDS011;46221;51.178;5.900;2022-12-18T00:20:29;13.02;;;7.65;;
50337;SDS011;46221;51.178;5.900;2022-12-18T00:22:56;11.70;;;7.78;;
50337;SDS011;46221;51.178;5.900;2022-12-18T00:25:22;12.18;;;7.40;;
50337;SDS011;46221;51.178;5.900;2022-12-18T00:27:49;10.98;;;7.40;;
50337;SDS011;46221;51.178;5.900;2022-12-18T00:30:15;13.27;;;7.07;;
50337;SDS011;46221;51.178;5.900;2022-12-18T00:32:42;9.35;;;6.75;;
50337;SDS011;46221;51.178;5.900;2022-12-18T00:35:09;11.82;;;7.93;;
50337;SDS011;46221;51.178;5.900;2022-12-18T00:37:35;11.68;;;7.85;;
50337;SDS011;46221;51.178;5.900;2022-12-18T00:40:02;11.07;;;7.32;;
50337;SDS011;46221;51.178;5.900;2022-12-18T00:42:28;12.50;;;7.88;;
50337;SDS011;46221;51.178;5.900;2022-12-18T00:45:13;11.38;;;7.03;;
50337;SDS011;46221;51.178;5.900;2022-12-18T00:47:40;11.95;;;7.47;;
50337;SDS011;46221;51.178;5.900;2022-12-18T00:50:06;10.48;;;7.07;;
50337;SDS011;46221;51.178;5.900;2022-12-18T00:52:33;10.63;;;7.00;;
50337;SDS011;46221;51.178;5.900;2022-12-18T00:57:31;9.70;;;6.78;;
50337;SDS011;46221;51.178;5.900;2022-12-18T00:59:57;11.75;;;7.55;;
50337;SDS011;46221;51.178;5.900;2022-12-18T01:02:23;12.20;;;8.07;;
50337;SDS011;46221;51.178;5.900;2022-12-18T01:04:50;11.85;;;7.53;;
50337;SDS011;46221;51.178;5.900;2022-12-18T01:09:42;10.52;;;7.03;;
50337;SDS011;46221;51.178;5.900;2022-12-18T01:14:35;10.85;;;6.72;;
50337;SDS011;46221;51.178;5.900;2022-12-18T01:17:02;10.15;;;7.07;;
50337;SDS011;46221;51.178;5.900;2022-12-18T01:19:29;11.82;;;7.30;;
50337;SDS011;46221;51.178;5.900;2022-12-18T01:21:56;10.50;;;6.55;;
50337;SDS011;46221;51.178;5.900;2022-12-18T01:24:22;11.02;;;7.40;;
50337;SDS011;46221;51.178;5.900;2022-12-18T01:26:49;10.73;;;6.97;;
50337;SDS011;46221;51.178;5.900;2022-12-18T01:29:15;11.13;;;7.53;;
50337;SDS011;46221;51.178;5.900;2022-12-18T01:34:08;10.65;;;6.97;;
50337;SDS011;46221;51.178;5.900;2022-12-18T01:36:35;9.27;;;6.63;;
50337;SDS011;46221;51.178;5.900;2022-12-18T01:39:06;11.18;;;7.18;;
50337;SDS011;46221;51.178;5.900;2022-12-18T01:41:33;11.50;;;6.88;;
50337;SDS011;46221;51.178;5.900;2022-12-18T01:47:04;9.40;;;6.63;;
50337;SDS011;46221;51.178;5.900;2022-12-18T01:49:30;10.23;;;6.28;;
50337;SDS011;46221;51.178;5.900;2022-12-18T01:51:57;9.75;;;6.53;;
50337;SDS011;46221;51.178;5.900;2022-12-18T01:54:23;10.27;;;6.57;;
50337;SDS011;46221;51.178;5.900;2022-12-18T01:56:49;10.07;;;6.82;;
50337;SDS011;46221;51.178;5.900;2022-12-18T01:59:16;9.02;;;5.88;;
50337;SDS011;46221;51.178;5.900;2022-12-18T02:01:42;11.85;;;7.10;;
50337;SDS011;46221;51.178;5.900;2022-12-18T02:04:25;10.82;;;7.20;;
50337;SDS011;46221;51.178;5.900;2022-12-18T02:06:59;9.48;;;6.63;;
50337;SDS011;46221;51.178;5.900;2022-12-18T02:09:30;10.23;;;6.57;;
50337;SDS011;46221;51.178;5.900;2022-12-18T02:12:05;8.57;;;5.88;;
50337;SDS011;46221;51.178;5.900;2022-12-18T02:17:18;10.23;;;6.53;;
50337;SDS011;46221;51.178;5.900;2022-12-18T02:27:56;10.95;;;6.75;;
50337;SDS011;46221;51.178;5.900;2022-12-18T02:30:25;9.43;;;6.28;;
50337;SDS011;46221;51.178;5.900;2022-12-18T02:32:52;10.55;;;6.43;;
50337;SDS011;46221;51.178;5.900;2022-12-18T02:35:20;8.77;;;6.25;;
50337;SDS011;46221;51.178;5.900;2022-12-18T02:37:48;11.88;;;6.68;;
50337;SDS011;46221;51.178;5.900;2022-12-18T02:40:14;10.63;;;7.20;;
50337;SDS011;46221;51.178;5.900;2022-12-18T02:42:43;9.98;;;7.00;;
50337;SDS011;46221;51.178;5.900;2022-12-18T02:47:36;10.45;;;6.20;;
50337;SDS011;46221;51.178;5.900;2022-12-18T02:52:56;11.77;;;7.40;;
50337;SDS011;46221;51.178;5.900;2022-12-18T02:56:09;11.18;;;7.50;;
50337;SDS011;46221;51.178;5.900;2022-12-18T02:58:16;10.15;;;6.57;;
50337;SDS011;46221;51.178;5.900;2022-12-18T03:03:29;10.88;;;6.38;;
50337;SDS011;46221;51.178;5.900;2022-12-18T03:06:00;10.73;;;6.70;;
50337;SDS011;46221;51.178;5.900;2022-12-18T03:08:28;8.75;;;6.30;;
50337;SDS011;46221;51.178;5.900;2022-12-18T03:11:03;10.35;;;6.15;;
50337;SDS011;46221;51.178;5.900;2022-12-18T03:16:15;9.80;;;5.88;;
50337;SDS011;46221;51.178;5.900;2022-12-18T03:18:45;10.35;;;5.80;;
50337;SDS011;46221;51.178;5.900;2022-12-18T03:21:13;9.38;;;5.80;;
50337;SDS011;46221;51.178;5.900;2022-12-18T03:23:42;8.70;;;5.50;;
50337;SDS011;46221;51.178;5.900;2022-12-18T03:26:11;8.80;;;5.68;;
50337;SDS011;46221;51.178;5.900;2022-12-18T03:28:41;9.05;;;5.90;;
50337;SDS011;46221;51.178;5.900;2022-12-18T03:31:08;11.93;;;6.75;;
50337;SDS011;46221;51.178;5.900;2022-12-18T03:33:38;10.43;;;6.47;;
50337;SDS011;46221;51.178;5.900;2022-12-18T03:36:06;10.45;;;6.25;;
50337;SDS011;46221;51.178;5.900;2022-12-18T03:38:32;9.52;;;6.30;;
50337;SDS011;46221;51.178;5.900;2022-12-18T03:45:53;9.18;;;5.65;;
50337;SDS011;46221;51.178;5.900;2022-12-18T03:48:29;8.68;;;5.57;;
50337;SDS011;46221;51.178;5.900;2022-12-18T03:50:58;10.00;;;6.10;;
50337;SDS011;46221;51.178;5.900;2022-12-18T03:53:28;9.90;;;5.55;;
50337;SDS011;46221;51.178;5.900;2022-12-18T03:55:58;7.75;;;5.43;;
50337;SDS011;46221;51.178;5.900;2022-12-18T03:58:25;9.40;;;5.47;;
50337;SDS011;46221;51.178;5.900;2022-12-18T04:00:53;8.85;;;5.65;;
50337;SDS011;46221;51.178;5.900;2022-12-18T04:03:21;8.63;;;5.63;;
50337;SDS011;46221;51.178;5.900;2022-12-18T04:06:02;8.75;;;5.50;;
50337;SDS011;46221;51.178;5.900;2022-12-18T04:08:30;8.43;;;5.25;;
50337;SDS011;46221;51.178;5.900;2022-12-18T04:10:56;10.18;;;6.47;;
50337;SDS011;46221;51.178;5.900;2022-12-18T04:13:23;9.18;;;5.70;;
50337;SDS011;46221;51.178;5.900;2022-12-18T04:15:50;8.40;;;5.70;;
50337;SDS011;46221;51.178;5.900;2022-12-18T04:18:18;9.00;;;6.13;;
50337;SDS011;46221;51.178;5.900;2022-12-18T04:20:44;7.97;;;5.22;;
50337;SDS011;46221;51.178;5.900;2022-12-18T04:23:10;11.35;;;6.03;;
50337;SDS011;46221;51.178;5.900;2022-12-18T04:25:37;9.27;;;5.55;;
50337;SDS011;46221;51.178;5.900;2022-12-18T04:28:03;9.75;;;5.75;;
50337;SDS011;46221;51.178;5.900;2022-12-18T04:30:29;8.13;;;5.78;;
50337;SDS011;46221;51.178;5.900;2022-12-18T04:32:56;12.68;;;5.82;;
50337;SDS011;46221;51.178;5.900;2022-12-18T04:35:22;9.60;;;5.45;;
50337;SDS011;46221;51.178;5.900;2022-12-18T04:37:48;8.45;;;5.50;;
50337;SDS011;46221;51.178;5.900;2022-12-18T04:40:15;8.65;;;5.13;;
50337;SDS011;46221;51.178;5.900;2022-12-18T04:42:41;7.88;;;5.05;;
50337;SDS011;46221;51.178;5.900;2022-12-18T04:45:07;9.48;;;6.10;;
50337;SDS011;46221;51.178;5.900;2022-12-18T04:47:34;10.43;;;6.15;;
50337;SDS011;46221;51.178;5.900;2022-12-18T04:50:00;8.63;;;5.70;;
50337;SDS011;46221;51.178;5.900;2022-12-18T04:52:27;9.00;;;5.97;;
50337;SDS011;46221;51.178;5.900;2022-12-18T04:54:53;8.57;;;5.70;;
50337;SDS011;46221;51.178;5.900;2022-12-18T04:57:20;8.05;;;5.50;;
50337;SDS011;46221;51.178;5.900;2022-12-18T04:59:46;7.95;;;5.57;;
50337;SDS011;46221;51.178;5.900;2022-12-18T05:02:12;8.15;;;5.60;;
50337;SDS011;46221;51.178;5.900;2022-12-18T05:04:39;12.38;;;5.97;;
50337;SDS011;46221;51.178;5.900;2022-12-18T05:09:31;9.77;;;6.25;;
50337;SDS011;46221;51.178;5.900;2022-12-18T05:14:24;8.55;;;5.70;;
50337;SDS011;46221;51.178;5.900;2022-12-18T05:16:50;9.07;;;5.45;;
50337;SDS011;46221;51.178;5.900;2022-12-18T05:21:42;9.05;;;5.40;;
50337;SDS011;46221;51.178;5.900;2022-12-18T05:24:09;9.10;;;5.95;;
50337;SDS011;46221;51.178;5.900;2022-12-18T05:26:35;9.27;;;5.72;;
50337;SDS011;46221;51.178;5.900;2022-12-18T05:29:02;9.13;;;5.32;;
50337;SDS011;46221;51.178;5.900;2022-12-18T05:31:28;9.32;;;5.60;;
50337;SDS011;46221;51.178;5.900;2022-12-18T05:34:01;9.85;;;6.18;;
50337;SDS011;46221;51.178;5.900;2022-12-18T05:36:27;10.68;;;7.63;;
50337;SDS011;46221;51.178;5.900;2022-12-18T05:38:53;9.93;;;5.78;;
50337;SDS011;46221;51.178;5.900;2022-12-18T05:41:20;9.43;;;6.05;;
50337;SDS011;46221;51.178;5.900;2022-12-18T05:43:46;8.95;;;5.57;;
50337;SDS011;46221;51.178;5.900;2022-12-18T05:46:14;8.50;;;5.35;;
50337;SDS011;46221;51.178;5.900;2022-12-18T05:48:41;8.80;;;5.47;;
50337;SDS011;46221;51.178;5.900;2022-12-18T05:51:08;9.10;;;5.43;;
50337;SDS011;46221;51.178;5.900;2022-12-18T05:53:35;7.90;;;5.20;;
50337;SDS011;46221;51.178;5.900;2022-12-18T05:56:03;9.55;;;5.68;;
50337;SDS011;46221;51.178;5.900;2022-12-18T05:58:30;10.57;;;5.93;;
50337;SDS011;46221;51.178;5.900;2022-12-18T06:00:57;8.50;;;5.82;;
50337;SDS011;46221;51.178;5.900;2022-12-18T06:03:23;10.20;;;5.90;;
50337;SDS011;46221;51.178;5.900;2022-12-18T06:05:57;8.35;;;5.20;;
50337;SDS011;46221;51.178;5.900;2022-12-18T06:10:50;9.18;;;5.43;;
50337;SDS011;46221;51.178;5.900;2022-12-18T06:13:17;9.80;;;5.88;;
50337;SDS011;46221;51.178;5.900;2022-12-18T06:18:09;8.73;;;5.65;;
50337;SDS011;46221;51.178;5.900;2022-12-18T06:23:03;9.32;;;6.07;;
50337;SDS011;46221;51.178;5.900;2022-12-18T06:25:29;8.45;;;5.50;;
50337;SDS011;46221;51.178;5.900;2022-12-18T06:27:55;8.75;;;5.28;;
50337;SDS011;46221;51.178;5.900;2022-12-18T06:32:48;9.30;;;5.90;;
50337;SDS011;46221;51.178;5.900;2022-12-18T06:35:21;7.78;;;5.28;;
50337;SDS011;46221;51.178;5.900;2022-12-18T06:37:48;10.18;;;6.45;;
50337;SDS011;46221;51.178;5.900;2022-12-18T06:42:40;9.43;;;5.57;;
50337;SDS011;46221;51.178;5.900;2022-12-18T06:45:07;8.77;;;5.63;;
50337;SDS011;46221;51.178;5.900;2022-12-18T06:47:33;8.45;;;5.60;;
50337;SDS011;46221;51.178;5.900;2022-12-18T06:50:00;9.07;;;5.65;;
50337;SDS011;46221;51.178;5.900;2022-12-18T06:52:26;9.13;;;5.47;;
50337;SDS011;46221;51.178;5.900;2022-12-18T06:57:19;8.55;;;5.57;;
50337;SDS011;46221;51.178;5.900;2022-12-18T06:59:45;8.98;;;5.65;;
50337;SDS011;46221;51.178;5.900;2022-12-18T07:04:38;7.22;;;4.95;;
50337;SDS011;46221;51.178;5.900;2022-12-18T07:07:04;8.90;;;5.43;;
50337;SDS011;46221;51.178;5.900;2022-12-18T07:11:57;7.95;;;5.60;;
50337;SDS011;46221;51.178;5.900;2022-12-18T07:14:24;8.93;;;5.88;;
50337;SDS011;46221;51.178;5.900;2022-12-18T07:19:16;10.80;;;6.35;;
50337;SDS011;46221;51.178;5.900;2022-12-18T07:21:43;9.27;;;6.35;;
50337;SDS011;46221;51.178;5.900;2022-12-18T07:24:09;9.25;;;5.50;;
50337;SDS011;46221;51.178;5.900;2022-12-18T07:26:35;8.73;;;5.60;;
50337;SDS011;46221;51.178;5.900;2022-12-18T07:29:02;9.38;;;7.00;;
50337;SDS011;46221;51.178;5.900;2022-12-18T07:31:28;9.38;;;5.93;;
50337;SDS011;46221;51.178;5.900;2022-12-18T07:33:55;10.10;;;6.13;;
50337;SDS011;46221;51.178;5.900;2022-12-18T07:36:21;9.30;;;5.68;;
50337;SDS011;46221;51.178;5.900;2022-12-18T07:38:48;7.70;;;5.50;;
50337;SDS011;46221;51.178;5.900;2022-12-18T07:41:14;8.38;;;5.13;;
50337;SDS011;46221;51.178;5.900;2022-12-18T07:43:41;8.50;;;4.97;;
50337;SDS011;46221;51.178;5.900;2022-12-18T07:46:10;9.75;;;6.32;;
50337;SDS011;46221;51.178;5.900;2022-12-18T07:48:39;9.50;;;6.57;;
50337;SDS011;46221;51.178;5.900;2022-12-18T07:51:06;8.45;;;5.95;;
50337;SDS011;46221;51.178;5.900;2022-12-18T07:53:35;12.45;;;6.32;;
50337;SDS011;46221;51.178;5.900;2022-12-18T07:56:04;10.02;;;6.40;;
50337;SDS011;46221;51.178;5.900;2022-12-18T07:58:51;9.50;;;6.53;;
50337;SDS011;46221;51.178;5.900;2022-12-18T08:03:43;9.83;;;5.87;;
50337;SDS011;46221;51.178;5.900;2022-12-18T08:06:10;9.00;;;5.47;;
50337;SDS011;46221;51.178;5.900;2022-12-18T08:08:36;9.40;;;6.25;;
50337;SDS011;46221;51.178;5.900;2022-12-18T08:11:03;11.88;;;6.78;;
50337;SDS011;46221;51.178;5.900;2022-12-18T08:13:29;9.88;;;6.00;;
50337;SDS011;46221;51.178;5.900;2022-12-18T08:15:56;11.88;;;5.88;;
50337;SDS011;46221;51.178;5.900;2022-12-18T08:18:23;8.45;;;5.15;;
50337;SDS011;46221;51.178;5.900;2022-12-18T08:20:49;8.90;;;5.63;;
50337;SDS011;46221;51.178;5.900;2022-12-18T08:23:16;9.43;;;5.03;;
50337;SDS011;46221;51.178;5.900;2022-12-18T08:25:42;10.23;;;5.78;;
50337;SDS011;46221;51.178;5.900;2022-12-18T08:28:08;12.60;;;6.03;;
50337;SDS011;46221;51.178;5.900;2022-12-18T08:33:01;11.38;;;7.15;;
50337;SDS011;46221;51.178;5.900;2022-12-18T08:35:28;11.18;;;7.03;;
50337;SDS011;46221;51.178;5.900;2022-12-18T08:38:02;10.55;;;7.53;;
50337;SDS011;46221;51.178;5.900;2022-12-18T08:40:29;11.20;;;6.95;;
50337;SDS011;46221;51.178;5.900;2022-12-18T08:42:55;10.45;;;7.55;;
50337;SDS011;46221;51.178;5.900;2022-12-18T08:45:40;10.00;;;6.55;;
50337;SDS011;46221;51.178;5.900;2022-12-18T08:48:10;11.50;;;6.93;;
50337;SDS011;46221;51.178;5.900;2022-12-18T08:50:36;11.48;;;7.18;;
50337;SDS011;46221;51.178;5.900;2022-12-18T08:53:03;12.05;;;7.40;;
50337;SDS011;46221;51.178;5.900;2022-12-18T08:55:29;10.57;;;7.70;;
50337;SDS011;46221;51.178;5.900;2022-12-18T08:57:55;9.60;;;6.15;;
50337;SDS011;46221;51.178;5.900;2022-12-18T09:00:21;9.38;;;6.10;;
50337;SDS011;46221;51.178;5.900;2022-12-18T09:02:48;10.00;;;6.68;;
50337;SDS011;46221;51.178;5.900;2022-12-18T09:05:15;11.05;;;6.53;;
50337;SDS011;46221;51.178;5.900;2022-12-18T09:07:41;9.95;;;6.45;;
50337;SDS011;46221;51.178;5.900;2022-12-18T09:10:08;9.82;;;6.82;;
50337;SDS011;46221;51.178;5.900;2022-12-18T09:12:34;10.43;;;6.72;;
50337;SDS011;46221;51.178;5.900;2022-12-18T09:15:00;11.30;;;7.40;;
50337;SDS011;46221;51.178;5.900;2022-12-18T09:17:27;10.45;;;6.47;;
50337;SDS011;46221;51.178;5.900;2022-12-18T09:19:53;10.52;;;7.13;;
50337;SDS011;46221;51.178;5.900;2022-12-18T09:22:19;10.82;;;6.85;;
50337;SDS011;46221;51.178;5.900;2022-12-18T09:24:45;10.63;;;6.57;;
50337;SDS011;46221;51.178;5.900;2022-12-18T09:27:12;9.60;;;6.25;;
50337;SDS011;46221;51.178;5.900;2022-12-18T09:29:40;9.88;;;5.75;;
50337;SDS011;46221;51.178;5.900;2022-12-18T09:32:06;10.27;;;6.43;;
50337;SDS011;46221;51.178;5.900;2022-12-18T09:34:32;10.25;;;6.65;;
50337;SDS011;46221;51.178;5.900;2022-12-18T09:36:59;10.02;;;6.30;;
50337;SDS011;46221;51.178;5.900;2022-12-18T09:39:25;11.95;;;6.03;;
50337;SDS011;46221;51.178;5.900;2022-12-18T09:41:55;9.95;;;6.38;;
50337;SDS011;46221;51.178;5.900;2022-12-18T09:44:29;10.57;;;6.90;;
50337;SDS011;46221;51.178;5.900;2022-12-18T09:49:34;10.82;;;6.18;;
50337;SDS011;46221;51.178;5.900;2022-12-18T09:52:05;9.70;;;6.50;;
50337;SDS011;46221;51.178;5.900;2022-12-18T09:54:40;10.05;;;6.45;;
50337;SDS011;46221;51.178;5.900;2022-12-18T09:57:11;8.07;;;5.90;;
50337;SDS011;46221;51.178;5.900;2022-12-18T09:59:39;8.93;;;5.90;;
50337;SDS011;46221;51.178;5.900;2022-12-18T10:02:17;9.02;;;6.05;;
50337;SDS011;46221;51.178;5.900;2022-12-18T10:04:44;9.38;;;5.82;;
50337;SDS011;46221;51.178;5.900;2022-12-18T10:07:19;10.60;;;6.20;;
50337;SDS011;46221;51.178;5.900;2022-12-18T10:12:23;10.02;;;5.50;;
50337;SDS011;46221;51.178;5.900;2022-12-18T10:14:57;8.93;;;5.65;;
50337;SDS011;46221;51.178;5.900;2022-12-18T10:20:02;8.90;;;6.05;;
50337;SDS011;46221;51.178;5.900;2022-12-18T10:22:43;10.95;;;6.38;;
50337;SDS011;46221;51.178;5.900;2022-12-18T10:25:15;9.20;;;5.97;;
50337;SDS011;46221;51.178;5.900;2022-12-18T10:27:42;8.90;;;6.18;;
50337;SDS011;46221;51.178;5.900;2022-12-18T10:30:13;8.48;;;6.25;;
50337;SDS011;46221;51.178;5.900;2022-12-18T10:32:39;9.05;;;5.95;;
50337;SDS011;46221;51.178;5.900;2022-12-18T10:35:07;8.93;;;6.10;;
50337;SDS011;46221;51.178;5.900;2022-12-18T10:37:37;10.55;;;5.93;;
50337;SDS011;46221;51.178;5.900;2022-12-18T10:40:23;9.25;;;5.95;;
50337;SDS011;46221;51.178;5.900;2022-12-18T10:43:12;10.65;;;6.10;;
50337;SDS011;46221;51.178;5.900;2022-12-18T10:45:36;10.98;;;6.03;;
50337;SDS011;46221;51.178;5.900;2022-12-18T10:48:08;10.18;;;5.43;;
50337;SDS011;46221;51.178;5.900;2022-12-18T10:50:43;15.30;;;5.88;;
50337;SDS011;46221;51.178;5.900;2022-12-18T10:53:33;11.88;;;6.22;;
50337;SDS011;46221;51.178;5.900;2022-12-18T10:55:59;8.75;;;5.47;;
50337;SDS011;46221;51.178;5.900;2022-12-18T10:58:32;10.13;;;5.30;;
50337;SDS011;46221;51.178;5.900;2022-12-18T11:03:32;9.50;;;5.93;;
50337;SDS011;46221;51.178;5.900;2022-12-18T11:06:02;9.73;;;6.03;;
50337;SDS011;46221;51.178;5.900;2022-12-18T11:08:29;9.00;;;5.63;;
50337;SDS011;46221;51.178;5.900;2022-12-18T11:10:56;9.05;;;5.53;;
50337;SDS011;46221;51.178;5.900;2022-12-18T11:13:23;9.98;;;5.43;;
50337;SDS011;46221;51.178;5.900;2022-12-18T11:15:51;7.90;;;5.28;;
50337;SDS011;46221;51.178;5.900;2022-12-18T11:18:18;7.70;;;5.05;;
50337;SDS011;46221;51.178;5.900;2022-12-18T11:20:59;7.75;;;5.22;;
50337;SDS011;46221;51.178;5.900;2022-12-18T11:23:29;7.38;;;5.25;;
50337;SDS011;46221;51.178;5.900;2022-12-18T11:25:57;7.75;;;5.05;;
50337;SDS011;46221;51.178;5.900;2022-12-18T11:28:25;8.82;;;6.07;;
50337;SDS011;46221;51.178;5.900;2022-12-18T11:33:37;7.60;;;5.30;;
50337;SDS011;46221;51.178;5.900;2022-12-18T11:36:04;7.72;;;5.25;;
50337;SDS011;46221;51.178;5.900;2022-12-18T11:38:35;9.02;;;5.70;;
50337;SDS011;46221;51.178;5.900;2022-12-18T11:41:23;8.55;;;5.22;;
50337;SDS011;46221;51.178;5.900;2022-12-18T11:44:13;8.57;;;5.72;;
50337;SDS011;46221;51.178;5.900;2022-12-18T11:46:46;8.82;;;5.35;;
50337;SDS011;46221;51.178;5.900;2022-12-18T11:49:15;12.23;;;5.30;;
50337;SDS011;46221;51.178;5.900;2022-12-18T11:51:48;7.30;;;5.68;;
50337;SDS011;46221;51.178;5.900;2022-12-18T11:54:16;8.13;;;5.38;;
50337;SDS011;46221;51.178;5.900;2022-12-18T11:56:46;7.43;;;5.30;;
50337;SDS011;46221;51.178;5.900;2022-12-18T12:06:51;7.05;;;5.25;;
50337;SDS011;46221;51.178;5.900;2022-12-18T12:09:37;8.10;;;5.63;;
50337;SDS011;46221;51.178;5.900;2022-12-18T12:15:11;7.93;;;4.80;;
50337;SDS011;46221;51.178;5.900;2022-12-18T12:20:17;9.75;;;5.40;;
50337;SDS011;46221;51.178;5.900;2022-12-18T12:28:19;9.10;;;5.50;;
50337;SDS011;46221;51.178;5.900;2022-12-18T12:38:25;7.50;;;5.38;;
50337;SDS011;46221;51.178;5.900;2022-12-18T12:41:00;9.32;;;5.18;;
50337;SDS011;46221;51.178;5.900;2022-12-18T12:45:57;7.10;;;4.97;;
50337;SDS011;46221;51.178;5.900;2022-12-18T12:51:34;8.00;;;5.18;;
50337;SDS011;46221;51.178;5.900;2022-12-18T12:53:58;8.05;;;5.25;;
50337;SDS011;46221;51.178;5.900;2022-12-18T12:59:22;8.85;;;5.85;;
50337;SDS011;46221;51.178;5.900;2022-12-18T13:01:59;7.30;;;4.97;;
50337;SDS011;46221;51.178;5.900;2022-12-18T13:09:23;8.98;;;5.40;;
50337;SDS011;46221;51.178;5.900;2022-12-18T13:11:49;9.73;;;5.28;;
50337;SDS011;46221;51.178;5.900;2022-12-18T13:14:36;9.02;;;4.50;;
50337;SDS011;46221;51.178;5.900;2022-12-18T13:19:48;11.00;;;5.70;;
50337;SDS011;46221;51.178;5.900;2022-12-18T13:22:22;7.60;;;5.05;;
50337;SDS011;46221;51.178;5.900;2022-12-18T13:24:49;10.32;;;5.32;;
50337;SDS011;46221;51.178;5.900;2022-12-18T13:30:00;7.88;;;5.10;;
50337;SDS011;46221;51.178;5.900;2022-12-18T13:32:27;6.82;;;4.82;;
50337;SDS011;46221;51.178;5.900;2022-12-18T13:40:24;6.80;;;4.82;;
50337;SDS011;46221;51.178;5.900;2022-12-18T13:42:52;8.48;;;5.35;;
50337;SDS011;46221;51.178;5.900;2022-12-18T13:45:42;9.60;;;5.32;;
50337;SDS011;46221;51.178;5.900;2022-12-18T13:48:15;9.35;;;5.50;;
50337;SDS011;46221;51.178;5.900;2022-12-18T13:50:41;9.18;;;5.65;;
50337;SDS011;46221;51.178;5.900;2022-12-18T13:53:13;7.35;;;4.95;;
50337;SDS011;46221;51.178;5.900;2022-12-18T13:55:43;8.15;;;5.43;;
50337;SDS011;46221;51.178;5.900;2022-12-18T13:58:11;9.13;;;5.63;;
50337;SDS011;46221;51.178;5.900;2022-12-18T14:00:41;8.95;;;5.25;;
50337;SDS011;46221;51.178;5.900;2022-12-18T14:03:16;9.40;;;5.75;;
50337;SDS011;46221;51.178;5.900;2022-12-18T14:05:52;9.00;;;5.88;;
50337;SDS011;46221;51.178;5.900;2022-12-18T14:08:19;9.43;;;6.00;;
50337;SDS011;46221;51.178;5.900;2022-12-18T14:10:46;8.57;;;5.55;;
50337;SDS011;46221;51.178;5.900;2022-12-18T14:13:17;8.82;;;5.68;;
50337;SDS011;46221;51.178;5.900;2022-12-18T14:15:46;8.55;;;5.53;;
50337;SDS011;46221;51.178;5.900;2022-12-18T14:20:43;10.82;;;5.82;;
50337;SDS011;46221;51.178;5.900;2022-12-18T14:23:31;7.63;;;5.60;;
50337;SDS011;46221;51.178;5.900;2022-12-18T14:25:58;10.02;;;6.22;;
50337;SDS011;46221;51.178;5.900;2022-12-18T14:28:31;8.18;;;5.65;;
50337;SDS011;46221;51.178;5.900;2022-12-18T14:30:57;10.98;;;5.28;;
50337;SDS011;46221;51.178;5.900;2022-12-18T14:33:25;9.43;;;6.00;;
50337;SDS011;46221;51.178;5.900;2022-12-18T14:35:53;7.93;;;5.72;;
50337;SDS011;46221;51.178;5.900;2022-12-18T14:41:18;8.23;;;5.13;;
50337;SDS011;46221;51.178;5.900;2022-12-18T14:43:43;8.15;;;5.70;;
50337;SDS011;46221;51.178;5.900;2022-12-18T14:46:28;7.85;;;5.07;;
50337;SDS011;46221;51.178;5.900;2022-12-18T14:48:56;7.87;;;5.60;;
50337;SDS011;46221;51.178;5.900;2022-12-18T14:51:26;8.15;;;5.28;;
50337;SDS011;46221;51.178;5.900;2022-12-18T14:53:53;9.07;;;5.78;;
50337;SDS011;46221;51.178;5.900;2022-12-18T14:58:48;10.60;;;6.10;;
50337;SDS011;46221;51.178;5.900;2022-12-18T15:01:37;9.25;;;5.65;;
50337;SDS011;46221;51.178;5.900;2022-12-18T15:04:04;9.38;;;5.65;;
50337;SDS011;46221;51.178;5.900;2022-12-18T15:06:33;8.98;;;5.18;;
50337;SDS011;46221;51.178;5.900;2022-12-18T15:09:00;8.85;;;5.90;;
50337;SDS011;46221;51.178;5.900;2022-12-18T15:11:48;8.48;;;5.93;;
50337;SDS011;46221;51.178;5.900;2022-12-18T15:16:52;8.00;;;5.57;;
50337;SDS011;46221;51.178;5.900;2022-12-18T15:19:20;8.63;;;6.22;;
50337;SDS011;46221;51.178;5.900;2022-12-18T15:21:47;9.13;;;5.95;;
50337;SDS011;46221;51.178;5.900;2022-12-18T15:24:16;9.30;;;5.80;;
50337;SDS011;46221;51.178;5.900;2022-12-18T15:26:43;8.55;;;5.53;;
50337;SDS011;46221;51.178;5.900;2022-12-18T15:29:20;7.80;;;5.38;;
50337;SDS011;46221;51.178;5.900;2022-12-18T15:32:01;8.85;;;5.43;;
50337;SDS011;46221;51.178;5.900;2022-12-18T15:34:28;8.90;;;5.32;;
50337;SDS011;46221;51.178;5.900;2022-12-18T15:36:54;8.27;;;5.95;;
50337;SDS011;46221;51.178;5.900;2022-12-18T15:39:21;9.18;;;6.53;;
50337;SDS011;46221;51.178;5.900;2022-12-18T15:41:47;9.05;;;5.97;;
50337;SDS011;46221;51.178;5.900;2022-12-18T15:44:32;8.70;;;5.68;;
50337;SDS011;46221;51.178;5.900;2022-12-18T15:46:59;9.15;;;5.75;;
50337;SDS011;46221;51.178;5.900;2022-12-18T15:49:25;8.77;;;6.20;;
50337;SDS011;46221;51.178;5.900;2022-12-18T15:51:53;8.80;;;5.68;;
50337;SDS011;46221;51.178;5.900;2022-12-18T15:54:20;8.45;;;5.47;;
50337;SDS011;46221;51.178;5.900;2022-12-18T15:57:10;8.60;;;6.15;;
50337;SDS011;46221;51.178;5.900;2022-12-18T15:59:53;9.48;;;5.57;;
50337;SDS011;46221;51.178;5.900;2022-12-18T16:02:21;9.55;;;6.32;;
50337;SDS011;46221;51.178;5.900;2022-12-18T16:04:50;9.43;;;6.28;;
50337;SDS011;46221;51.178;5.900;2022-12-18T16:07:23;8.80;;;5.40;;
50337;SDS011;46221;51.178;5.900;2022-12-18T16:09:51;8.73;;;5.53;;
50337;SDS011;46221;51.178;5.900;2022-12-18T16:12:18;8.88;;;5.70;;
50337;SDS011;46221;51.178;5.900;2022-12-18T16:14:53;7.53;;;5.60;;
50337;SDS011;46221;51.178;5.900;2022-12-18T16:17:19;9.15;;;6.43;;
50337;SDS011;46221;51.178;5.900;2022-12-18T16:19:46;10.20;;;6.15;;
50337;SDS011;46221;51.178;5.900;2022-12-18T16:22:20;9.65;;;6.15;;
50337;SDS011;46221;51.178;5.900;2022-12-18T16:24:48;10.00;;;6.05;;
50337;SDS011;46221;51.178;5.900;2022-12-18T16:27:14;8.52;;;6.10;;
50337;SDS011;46221;51.178;5.900;2022-12-18T16:29:40;8.60;;;5.40;;
50337;SDS011;46221;51.178;5.900;2022-12-18T16:32:08;10.32;;;5.95;;
50337;SDS011;46221;51.178;5.900;2022-12-18T16:34:36;9.60;;;5.85;;
50337;SDS011;46221;51.178;5.900;2022-12-18T16:37:04;8.27;;;5.57;;
50337;SDS011;46221;51.178;5.900;2022-12-18T16:39:32;8.35;;;5.97;;
50337;SDS011;46221;51.178;5.900;2022-12-18T16:42:00;11.57;;;5.97;;
50337;SDS011;46221;51.178;5.900;2022-12-18T16:44:31;7.88;;;5.20;;
50337;SDS011;46221;51.178;5.900;2022-12-18T16:46:57;9.10;;;6.10;;
50337;SDS011;46221;51.178;5.900;2022-12-18T16:49:28;9.15;;;6.07;;
50337;SDS011;46221;51.178;5.900;2022-12-18T16:51:54;8.43;;;5.75;;
50337;SDS011;46221;51.178;5.900;2022-12-18T16:54:21;9.63;;;6.50;;
50337;SDS011;46221;51.178;5.900;2022-12-18T16:56:47;9.27;;;6.75;;
50337;SDS011;46221;51.178;5.900;2022-12-18T16:59:16;8.57;;;5.68;;
50337;SDS011;46221;51.178;5.900;2022-12-18T17:01:43;7.90;;;5.75;;
50337;SDS011;46221;51.178;5.900;2022-12-18T17:04:09;8.68;;;5.88;;
50337;SDS011;46221;51.178;5.900;2022-12-18T17:06:38;9.23;;;6.55;;
50337;SDS011;46221;51.178;5.900;2022-12-18T17:09:06;8.68;;;6.03;;
50337;SDS011;46221;51.178;5.900;2022-12-18T17:11:33;9.43;;;5.90;;
50337;SDS011;46221;51.178;5.900;2022-12-18T17:14:05;8.73;;;6.03;;
50337;SDS011;46221;51.178;5.900;2022-12-18T17:16:32;8.15;;;5.97;;
50337;SDS011;46221;51.178;5.900;2022-12-18T17:18:59;10.30;;;5.95;;
50337;SDS011;46221;51.178;5.900;2022-12-18T17:21:25;9.32;;;6.38;;